Terminal Aerodrome Forecast
Issued by NWS

Home | Current Version | Previous Version | Text Only | Print | Product List | Glossary Off
Versions: 1 2 3 4 5 6 7 8 9 10 11 12 13 14 15 16 17

000
FTUS43 KMPX 271726
TAFAXN
TAF
KAXN 271726Z 2718/2818 35010KT P6SM SCT015 BKN020 BKN040
     FM280100 30007KT P6SM FEW025 BKN040
     FM281400 33010KT P6SM SCT080=

USA.gov is the U.S. government's official web portal to all federal, state and local government web resources and services.